Sponsor Message:
Non Aviation Forum
My Starred Topics | Profile | New Topic | Forum Index | Help | Search 
Weather, 2 Tornadoes Hit NYC.  
User currently offlinereadytotaxi From United Kingdom, joined Dec 2006, 3187 posts, RR: 2
Posted (1 year 10 months 3 weeks 2 days 1 hour ago) and read 2013 times:

http://www.bbc.co.uk/news/world-us-canada-19534104

Was there problems with arrivals and departures at JFK yesterday, nothing in the news report.


you don't get a second chance to make a first impression!
2 replies: All unread, jump to last
 
User currently offlineYYZatcboy From Canada, joined Apr 2005, 1069 posts, RR: 0
Reply 1, posted (1 year 10 months 3 weeks 2 days 1 hour ago) and read 1993 times:
AIRLINERS.NET CREW
CUSTOMER SERVICE & SUPPORT

here is the JFK weather. I don't see any FC in the metars...

KJFK 090651Z 34006KT 10SM BKN070 OVC140 19/16 A2978 RMK AO2
RAE03 SLP085 P0000 T01940156

KJFK 090551Z 32006KT 10SM -RA BKN065 BKN095 OVC140 19/16 A2978
RMK AO2 SLP084 P0000 60010 T01890161 10228 20189 50004

KJFK 090451Z 31008KT 10SM -RA SCT070 BKN100 OVC140 19/16 A2980
RMK AO2 SLP090 P0000 T01940156 402830189

KJFK 090351Z 28003KT 10SM -RA SCT065 BKN090 OVC120 19/16 A2979
RMK AO2 SLP088 P0002 T01890161

KJFK 090251Z 31008KT 10SM -RA SCT060 BKN085 OVC120 19/16 A2977
RMK AO2 SLP081 P0002 60008 T01890156 51023

KJFK 090151Z 33012KT 10SM -RA FEW029 SCT046 OVC065 20/16 A2975
RMK AO2 SLP074 P0005 T02000156

KJFK 090051Z 33014KT 10SM -RA FEW018 SCT029 BKN070 OVC140
21/16 A2974 RMK AO2 PRESRR SLP070 P0001 T02060156

KJFK 082351Z 28008KT 8SM -RA FEW017 BKN060 OVC090 23/20 A2970
RMK AO2 SLP058 P0010 60019 T02280200 10283 20217 53035

SPECI KJFK 082246Z 29014G21KT 7SM -RA FEW018 BKN040CB BKN110 BKN250
23/19 A2966 RMK AO2 PK WND 20031/2213 WSHFT 2207 TSB17E46RAB25
CB NE MOV NE CB SW-W MOV NE P0009

SPECI KJFK 082224Z 30014G26KT 9SM TS FEW011 BKN030CB BKN055 BKN250
24/19 A2964 RMK AO2 PK WND 20031/2213 WSHFT 2207 TSB17 OCNL
LTGIC SW-NE TS SW-NE MOV NE VCSH SW-NE

SPECI KJFK 082217Z 26017G31KT 9SM TS FEW011 BKN030CB BKN250 26/23
A2963 RMK AO2 PK WND 20031/2213 TSB17 OCNL LTGIC SW-N TS SW-N
MOV NE VCSH SW-N

KJFK 082151Z 19023G30KT 10SM FEW011 SCT030 BKN250 26/23 A2960
RMK AO2 PK WND 20033/2139 SLP023 CB DSNT SW-NW TCU DSNT SW
T02610233

KJFK 082051Z 19023G31KT 10SM FEW011 SCT030 SCT120 BKN250 27/23
A2960 RMK AO2 PK WND 18036/2032 SLP023 CB DSNT W-NW T02670233
56027

KJFK 081951Z 19024G31KT 10SM FEW011 SCT030 SCT120 SCT250 28/23
A2963 RMK AO2 PK WND 18034/1852 SLP033 TCU DSNT W-NW T02780233

KJFK 081851Z 18024G30KT 10SM SCT012 SCT030 SCT120 SCT250 28/24
A2964 RMK AO2 PK WND 17033/1829 SLP038 TCU DSNT W-NW T02780239

SPECI KJFK 081845Z 18023G30KT 10SM SCT012 SCT030 SCT120 SCT250 28/24
A2965 RMK AO2 PK WND 17033/1829 TCU DSNT W-NW

KJFK 081751Z 18023G30KT 10SM BKN012TCU BKN150 BKN250 28/24
A2968 RMK AO2 PK WND 18034/1710 SLP050 TCU NW 60001 T02780239
10283 20250 58025

SPECI KJFK 081737Z 18019G28KT 10SM BKN014TCU BKN150 BKN250 27/24
A2968 RMK AO2 PK WND 18034/1710 TCU NW

SPECI KJFK 081712Z 18023G34KT 10SM SCT012TCU BKN150 BKN250 28/24
A2970 RMK AO2 PK WND 18034/1710 TCU NW

KJFK 081651Z 18021G29KT 10SM BKN012TCU BKN150 BKN250 27/24
A2971 RMK AO2 PK WND 17029/1648 RAE09B47E49 SLP061 TCU W-NW
P0001 T02720239

SPECI KJFK 081621Z 17019G25KT 10SM BKN012 BKN040 BKN250 27/24 A2972
RMK AO2 PK WND 17027/1610 RAE09 P0001

KJFK 081551Z 17020G26KT 10SM -RA SCT014CB BKN022 BKN044 BKN150
26/24 A2973 RMK AO2 PK WND 17028/1540 RAB1453E13B29 SLP068 CB
SW-W MOV NE P0000 T02610239

SPECI KJFK 081526Z 17021G28KT 10SM SCT012 BKN026 BKN095 BKN250 26/23
A2974 RMK AO2 PK WND 17028/1519 RAB1453E13 P0000
PAGE 01 09SEP12



DHC1/3/4 MD11/88 L1011 A319/20/21/30 B727 735/6/7/8/9 762/3 E175/90 CRJ/700/705 CC150. J/S DH8D 736/7/8
User currently offlinenkops From United States of America, joined Jun 2005, 2660 posts, RR: 6
Reply 2, posted (1 year 10 months 3 weeks 1 day 21 hours ago) and read 1774 times:

There was a tornado in Queens I saw on Weather Channel... for the most part, the worst of the storms kind of weakened as they got close to the coast ( at least in NJ) and looking at the METARS above it doesnt look like it got too bad in JFK


I have no association with Spirit Airlines
Top Of Page
Forum Index

This topic is archived and can not be replied to any more.

Printer friendly format

Similar topics:More similar topics...
Shooting At Empire State Building In NYC posted Fri Aug 24 2012 06:47:24 by Aloha717200
Reporting A Hit And Run In Ontario posted Tue Aug 21 2012 21:02:14 by StarAC17
Newsweek Cover: 'Hit The Road Barack' posted Mon Aug 20 2012 06:23:00 by bjorn14
Touring NYC's Ethnic Neighborhoods: Advice Please posted Wed Dec 29 2010 10:23:30 by Staralliance38
Hit It! Work It! posted Thu Dec 23 2010 19:28:27 by F9Animal
German Weather Question posted Thu Dec 16 2010 21:22:58 by Indy
December Would You Hit It posted Mon Dec 6 2010 10:26:18 by Marcus
Self Gloss: NYC A#1 For Worst Traffic Jams! posted Wed Nov 24 2010 16:53:01 by comorin
Strange NYC Street Sign.... posted Mon Nov 22 2010 22:24:28 by vikkyvik
Pam Ann NYC Nov 23-27 posted Wed Nov 10 2010 11:36:37 by rl757pvd